createdAt,value
2016-06-02T00:00:11.501Z,0
2016-06-02T00:01:11.613Z,0
2016-06-02T00:02:11.444Z,0
2016-06-02T00:03:11.463Z,0
2016-06-02T00:04:11.465Z,0
2016-06-02T00:05:11.640Z,0
2016-06-02T00:06:11.486Z,0
2016-06-02T00:07:11.332Z,0
2016-06-02T00:08:11.507Z,0
2016-06-02T00:09:11.666Z,0
2016-06-02T00:10:12.248Z,0
2016-06-02T00:11:11.500Z,0
2016-06-02T00:12:11.673Z,0
2016-06-02T00:13:11.521Z,0
2016-06-02T00:14:11.539Z,0
2016-06-02T00:15:11.698Z,0
2016-06-02T00:16:11.716Z,0
2016-06-02T00:17:11.547Z,0
2016-06-02T00:18:11.706Z,0
2016-06-02T00:19:11.568Z,0
2016-06-02T00:20:11.727Z,0
2016-06-02T00:21:11.730Z,0
2016-06-02T00:22:11.733Z,0
2016-06-02T00:23:11.578Z,0
2016-06-02T00:24:11.597Z,0
2016-06-02T00:25:12.319Z,0
2016-06-02T00:26:11.758Z,0
2016-06-02T00:27:11.449Z,0
2016-06-02T00:28:11.780Z,0
2016-06-02T00:29:11.782Z,0
2016-06-02T00:30:11.786Z,0
2016-06-02T00:31:11.804Z,0
2016-06-02T00:32:11.649Z,0
2016-06-02T00:33:11.793Z,0
2016-06-02T00:34:11.812Z,0
2016-06-02T00:35:11.518Z,0
2016-06-02T00:36:11.817Z,0
2016-06-02T00:37:11.820Z,0
2016-06-02T00:38:11.666Z,0
2016-06-02T00:39:11.544Z,0
2016-06-02T00:40:12.203Z,0
2016-06-02T00:41:11.846Z,0
2016-06-02T00:42:11.864Z,0
2016-06-02T00:43:11.851Z,0
2016-06-02T00:44:11.714Z,0
2016-06-02T00:45:11.873Z,0
2016-06-02T00:46:11.719Z,0
2016-06-02T00:47:11.878Z,0
2016-06-02T00:48:11.740Z,0
2016-06-02T00:49:11.742Z,0
2016-06-02T00:50:11.745Z,0
2016-06-02T00:51:11.904Z,0
2016-06-02T00:52:11.907Z,0
2016-06-02T00:53:11.925Z,0
2016-06-02T00:54:11.944Z,0
2016-06-02T00:55:12.837Z,0
2016-06-02T00:56:11.933Z,0
2016-06-02T00:57:11.952Z,0
2016-06-02T00:58:11.797Z,0
2016-06-02T00:59:11.957Z,0
2016-06-02T01:00:11.975Z,0
2016-06-02T01:01:11.963Z,0
2016-06-02T01:02:11.980Z,0
2016-06-02T01:03:11.983Z,0
2016-06-02T01:04:11.986Z,0
2016-06-02T01:05:11.988Z,0
2016-06-02T01:06:11.851Z,0
2016-06-02T01:07:11.901Z,0
2016-06-02T01:08:12.074Z,0
2016-06-02T01:30:00.869Z,0
2016-06-02T01:31:00.825Z,0
2016-06-02T01:32:00.827Z,0
2016-06-02T01:33:00.689Z,0
2016-06-02T01:34:00.849Z,0
2016-06-02T01:35:00.851Z,0
2016-06-02T01:36:00.854Z,0
2016-06-02T01:37:00.700Z,0
2016-06-02T01:38:00.874Z,0
2016-06-02T01:39:00.877Z,0
2016-06-02T01:40:00.958Z,0
2016-06-02T01:41:00.899Z,0
2016-06-02T01:42:00.745Z,0
2016-06-02T01:43:00.888Z,0
2016-06-02T01:44:00.891Z,0
2016-06-02T01:45:00.909Z,0
2016-06-02T01:46:00.912Z,0
2016-06-02T01:47:00.914Z,0
2016-06-02T01:48:00.932Z,0
2016-06-02T01:49:00.795Z,0
2016-06-02T01:50:00.484Z,0
2016-06-02T01:51:00.972Z,0
2016-06-02T01:52:00.943Z,0
2016-06-02T01:53:00.962Z,0
2016-06-02T01:54:00.964Z,0
2016-06-02T01:55:00.795Z,0
2016-06-02T01:56:01.016Z,0
2016-06-02T01:57:00.973Z,0
2016-06-02T01:58:00.833Z,0
2016-06-02T01:59:00.978Z,0
2016-06-02T02:00:00.996Z,0
2016-06-02T02:01:00.842Z,0
2016-06-02T02:02:01.063Z,0
2016-06-02T02:03:15.160Z,0
2016-06-02T02:04:01.022Z,0
2016-06-02T02:05:00.885Z,0
2016-06-02T02:06:01.043Z,0
2016-06-02T02:07:01.046Z,0
2016-06-02T02:08:01.048Z,0
2016-06-02T02:09:01.114Z,0
2016-06-02T02:10:02.305Z,0
2016-06-02T02:11:00.932Z,0
2016-06-02T02:12:01.076Z,0
2016-06-02T02:13:01.079Z,0
2016-06-02T02:14:01.081Z,0
2016-06-02T02:15:00.942Z,0
2016-06-02T02:16:01.101Z,0
2016-06-02T02:17:01.104Z,0
2016-06-02T02:18:00.951Z,0
2016-06-02T02:19:01.109Z,0
2016-06-02T02:20:01.143Z,0
2016-06-02T02:21:01.130Z,0
2016-06-02T02:22:01.134Z,0
2016-06-02T02:23:00.995Z,0
2016-06-02T02:24:01.154Z,0
2016-06-02T02:25:01.906Z,0
2016-06-02T02:26:01.301Z,0
2016-06-02T02:27:01.161Z,0
2016-06-02T02:28:01.149Z,0
2016-06-02T02:29:01.028Z,0
2016-06-02T02:30:01.186Z,0
2016-06-02T02:31:01.047Z,0
2016-06-02T02:32:01.035Z,0
2016-06-02T02:33:01.225Z,0
2016-06-02T02:34:01.056Z,0
2016-06-02T02:35:01.199Z,0
2016-06-02T02:36:00.905Z,0
2016-06-02T02:37:01.221Z,0
2016-06-02T02:38:01.239Z,0
2016-06-02T02:39:01.226Z,0
2016-06-02T02:40:01.306Z,0
2016-06-02T02:41:01.138Z,0
2016-06-02T02:42:01.265Z,0
2016-06-02T02:43:01.112Z,0
2016-06-02T02:44:01.114Z,0
2016-06-02T02:45:01.304Z,0
2016-06-02T02:46:01.292Z,0
2016-06-02T02:47:01.294Z,0
2016-06-02T02:48:01.298Z,0
2016-06-02T02:49:00.987Z,0
2016-06-02T02:50:01.302Z,0
2016-06-02T02:51:01.306Z,0
2016-06-02T02:52:01.339Z,0
2016-06-02T02:53:01.342Z,0
2016-06-02T02:54:01.344Z,0
2016-06-02T02:55:01.753Z,0
2016-06-02T02:56:01.397Z,0
2016-06-02T02:57:01.337Z,0
2016-06-02T02:58:01.058Z,0
2016-06-02T02:59:01.045Z,0
2016-06-02T03:00:01.361Z,0
2016-06-02T03:01:01.363Z,0
2016-06-02T03:02:01.366Z,0
2016-06-02T03:03:01.384Z,0
2016-06-02T03:04:01.231Z,0
2016-06-02T03:05:01.452Z,0
2016-06-02T03:06:01.235Z,0
2016-06-02T03:07:01.410Z,0
2016-06-02T03:08:01.429Z,0
2016-06-02T03:09:01.322Z,0
2016-06-02T03:10:02.075Z,0
2016-06-02T03:11:01.390Z,0
2016-06-02T03:12:01.455Z,0
2016-06-02T03:13:01.458Z,0
2016-06-02T03:14:01.446Z,0
2016-06-02T03:15:01.323Z,0
2016-06-02T03:16:01.326Z,0
2016-06-02T03:17:01.468Z,0
2016-06-02T03:18:01.534Z,0
2016-06-02T03:19:01.473Z,0
2016-06-02T03:20:01.336Z,0
2016-06-02T03:21:01.495Z,0
2016-06-02T03:22:01.514Z,0
2016-06-02T03:23:01.516Z,0
2016-06-02T03:24:01.534Z,0
2016-06-02T03:25:01.990Z,0
2016-06-02T03:26:01.367Z,0
2016-06-02T03:27:01.542Z,0
2016-06-02T03:28:01.545Z,0
2016-06-02T03:29:01.588Z,0
2016-06-02T03:30:01.600Z,0
2016-06-02T03:31:01.644Z,0
2016-06-02T03:32:01.672Z,0
2016-06-02T03:33:01.387Z,0
2016-06-02T03:34:01.727Z,0
2016-06-02T03:35:01.725Z,0
2016-06-02T03:36:01.752Z,0
2016-06-02T03:37:01.607Z,0
2016-06-02T03:38:01.604Z,0
2016-06-02T03:39:01.798Z,0
2016-06-02T03:40:02.287Z,0
2016-06-02T03:41:03.653Z,0
2016-06-02T03:42:01.659Z,0
2016-06-02T03:43:01.664Z,0
2016-06-02T03:44:01.527Z,0
2016-06-02T03:45:01.844Z,5
2016-06-02T03:46:01.691Z,5
2016-06-02T03:47:01.851Z,5
2016-06-02T03:48:01.699Z,5
2016-06-02T03:49:01.859Z,0
2016-06-02T03:50:01.877Z,0
2016-06-02T03:51:01.896Z,0
2016-06-02T03:52:01.899Z,0
2016-06-02T03:53:01.902Z,0
2016-06-02T03:54:01.905Z,0
2016-06-02T03:55:02.799Z,0
2016-06-02T03:56:02.114Z,5
2016-06-02T03:57:01.931Z,5
2016-06-02T03:58:01.918Z,5
2016-06-02T03:59:01.936Z,5
2016-06-02T04:00:01.939Z,5
2016-06-02T04:01:01.659Z,5
2016-06-02T04:02:01.804Z,5
2016-06-02T04:03:01.822Z,5
2016-06-02T04:04:01.809Z,5
2016-06-02T04:05:02.014Z,5
2016-06-02T04:06:01.830Z,5
2016-06-02T04:07:01.833Z,5
2016-06-02T04:08:01.992Z,5
2016-06-02T04:09:02.009Z,5
2016-06-02T04:10:02.669Z,5
2016-06-02T04:11:02.014Z,5
2016-06-02T04:12:02.017Z,5
2016-06-02T04:13:02.035Z,5
2016-06-02T04:14:02.022Z,5
2016-06-02T04:15:02.025Z,5
2016-06-02T04:16:02.044Z,5
2016-06-02T04:17:02.046Z,5
2016-06-02T04:18:02.049Z,5
2016-06-02T04:19:02.052Z,5
2016-06-02T04:20:01.960Z,5
2016-06-02T04:21:02.057Z,5
2016-06-02T04:22:02.076Z,5
2016-06-02T04:23:01.922Z,5
2016-06-02T04:24:01.784Z,5
2016-06-02T04:25:03.849Z,5
2016-06-02T04:26:02.055Z,5
2016-06-02T04:27:01.948Z,5
2016-06-02T04:28:02.107Z,10
2016-06-02T04:29:02.126Z,10
2016-06-02T04:30:02.129Z,10
2016-06-02T04:31:02.132Z,10
2016-06-02T04:32:02.134Z,10
2016-06-02T04:33:02.152Z,15
2016-06-02T04:34:02.155Z,25
2016-06-02T04:35:02.158Z,25
2016-06-02T04:36:02.160Z,35
2016-06-02T04:37:02.006Z,40
2016-06-02T04:38:01.869Z,40
2016-06-02T04:39:02.169Z,45
2016-06-02T04:40:02.577Z,45
2016-06-02T04:41:02.220Z,50
2016-06-02T04:42:02.192Z,50
2016-06-02T04:43:02.226Z,55
2016-06-02T04:44:02.213Z,55
2016-06-02T04:45:02.231Z,75
2016-06-02T04:46:02.077Z,60
2016-06-02T04:47:02.237Z,60
2016-06-02T04:48:02.083Z,170
2016-06-02T04:49:02.242Z,185
2016-06-02T04:50:02.244Z,210
2016-06-02T04:51:02.263Z,135
2016-06-02T04:52:02.265Z,60
2016-06-02T04:53:02.096Z,110
2016-06-02T04:54:02.287Z,75
2016-06-02T04:55:02.399Z,230
2016-06-02T04:56:02.979Z,95
2016-06-02T04:57:02.295Z,80
2016-06-02T04:58:02.157Z,75
2016-06-02T04:59:02.315Z,70
2016-06-02T05:00:02.318Z,75
2016-06-02T05:01:02.353Z,65
2016-06-02T05:02:02.324Z,60
2016-06-02T05:03:02.343Z,70
2016-06-02T05:04:02.345Z,90
2016-06-02T05:05:02.348Z,90
2016-06-02T05:06:02.412Z,100
2016-06-02T05:07:02.353Z,120
2016-06-02T05:08:02.371Z,355
2016-06-02T05:09:02.374Z,450
2016-06-02T05:10:03.033Z,410
2016-06-02T05:11:02.848Z,405
2016-06-02T05:12:02.257Z,445
2016-06-02T05:13:02.416Z,175
2016-06-02T05:14:02.419Z,300
2016-06-02T05:15:02.422Z,325
2016-06-02T05:16:02.455Z,210
2016-06-02T05:17:02.442Z,150
2016-06-02T05:18:02.444Z,475
2016-06-02T05:19:02.448Z,420
2016-06-02T05:20:02.450Z,305
2016-06-02T05:21:02.468Z,160
2016-06-02T05:22:02.175Z,100
2016-06-02T05:23:02.474Z,80
2016-06-02T05:24:02.493Z,80
2016-06-02T05:25:08.245Z,115
2016-06-02T05:26:02.654Z,135
2016-06-02T05:27:02.501Z,140
2016-06-02T05:28:02.519Z,270
2016-06-02T05:29:02.521Z,300
2016-06-02T05:30:02.524Z,120
2016-06-02T05:31:02.605Z,125
2016-06-02T05:32:02.529Z,100
2016-06-02T05:33:02.564Z,105
2016-06-02T05:34:02.567Z,90
2016-06-02T05:35:02.570Z,130
2016-06-02T05:36:02.572Z,150
2016-06-02T05:37:02.575Z,205
2016-06-02T05:38:02.421Z,160
2016-06-02T05:39:02.580Z,140
2016-06-02T05:40:03.051Z,125
2016-06-02T05:41:03.429Z,125
2016-06-02T05:42:02.619Z,140
2016-06-02T05:43:02.466Z,180
2016-06-02T05:44:02.639Z,415
2016-06-02T05:45:02.627Z,765
2016-06-02T05:46:02.488Z,310
2016-06-02T05:47:02.492Z,535
2016-06-02T05:48:02.650Z,425
2016-06-02T05:49:02.357Z,300
2016-06-02T05:50:02.656Z,400
2016-06-02T05:51:02.674Z,400
2016-06-02T05:52:02.693Z,280
2016-06-02T05:53:02.710Z,600
2016-06-02T05:54:02.542Z,865
2016-06-02T05:55:02.716Z,860
2016-06-02T05:56:02.594Z,475
2016-06-02T05:57:02.721Z,590
2016-06-02T05:58:02.584Z,870
2016-06-02T05:59:02.587Z,735
2016-06-02T06:00:02.590Z,875
2016-06-02T06:01:02.764Z,895
2016-06-02T06:02:02.782Z,890
2016-06-02T06:03:02.629Z,935
2016-06-02T06:04:02.787Z,880
2016-06-02T06:05:02.634Z,855
2016-06-02T06:06:02.652Z,890
2016-06-02T06:07:02.656Z,920
2016-06-02T06:08:02.673Z,945
2016-06-02T06:09:02.989Z,1025
2016-06-02T06:10:03.335Z,1060
2016-06-02T06:11:03.478Z,1025
2016-06-02T06:12:02.715Z,1010
2016-06-02T06:13:02.703Z,1035
2016-06-02T06:14:02.720Z,1025
2016-06-02T06:15:02.895Z,1005
2016-06-02T06:16:02.742Z,985
2016-06-02T06:17:02.916Z,990
2016-06-02T06:18:02.903Z,900
2016-06-02T06:19:02.938Z,840
2016-06-02T06:20:02.941Z,975
2016-06-02T06:21:02.787Z,1040
2016-06-02T06:22:02.960Z,1075
2016-06-02T06:23:02.652Z,1035
2016-06-02T06:24:02.827Z,900
2016-06-02T06:25:04.375Z,820
2016-06-02T06:26:02.847Z,885
2016-06-02T06:27:03.006Z,760
2016-06-02T06:28:03.008Z,415
2016-06-02T06:29:03.027Z,415
2016-06-02T06:30:02.874Z,560
2016-06-02T06:31:03.095Z,740
2016-06-02T06:32:03.051Z,435
2016-06-02T06:33:03.069Z,955
2016-06-02T06:34:03.071Z,990
2016-06-02T06:35:03.090Z,245
2016-06-02T06:36:03.077Z,255
2016-06-02T06:37:03.096Z,1035
2016-06-02T06:38:03.114Z,1065
2016-06-02T06:39:02.960Z,675
2016-06-02T06:40:03.353Z,275
2016-06-02T06:41:04.043Z,585
2016-06-02T06:42:03.156Z,720
2016-06-02T06:43:03.142Z,1015
2016-06-02T06:44:03.161Z,270
2016-06-02T06:45:03.022Z,185
2016-06-02T06:46:03.198Z,160
2016-06-02T06:47:03.231Z,220
2016-06-02T06:48:03.203Z,170
2016-06-02T06:49:03.205Z,220
2016-06-02T06:50:03.224Z,355
2016-06-02T06:51:03.070Z,160
2016-06-02T06:52:03.072Z,135
2016-06-02T06:53:03.247Z,105
2016-06-02T06:54:03.250Z,110
2016-06-02T06:55:03.644Z,100
2016-06-02T06:56:03.162Z,110
2016-06-02T06:57:03.274Z,125
2016-06-02T06:58:03.135Z,145
2016-06-02T06:59:03.295Z,375
2016-06-02T07:00:03.298Z,325
2016-06-02T07:01:03.316Z,260
2016-06-02T07:02:03.318Z,430
2016-06-02T07:03:03.321Z,770
2016-06-02T07:04:03.340Z,1080
2016-06-02T07:05:03.201Z,1245
2016-06-02T07:06:03.360Z,1245
2016-06-02T07:07:03.378Z,1185
2016-06-02T07:08:03.209Z,1095
2016-06-02T07:09:03.384Z,1175
2016-06-02T07:10:03.356Z,1335
2016-06-02T07:11:03.905Z,1440
2016-06-02T07:12:03.252Z,1380
2016-06-02T07:13:03.270Z,1400
2016-06-02T07:14:03.428Z,1350
2016-06-02T07:15:03.292Z,1300
2016-06-02T07:16:03.450Z,125
2016-06-02T07:17:03.453Z,130
2016-06-02T07:18:03.315Z,110
2016-06-02T07:19:03.475Z,155
2016-06-02T07:20:03.476Z,120
2016-06-02T07:21:03.495Z,150
2016-06-02T07:22:03.498Z,70
2016-06-02T07:23:03.516Z,65
2016-06-02T07:24:03.363Z,60
2016-06-02T07:25:03.694Z,60
2016-06-02T07:26:03.243Z,60
2016-06-02T07:27:03.386Z,55
2016-06-02T07:28:03.545Z,55
2016-06-02T07:29:03.626Z,60
2016-06-02T07:30:03.597Z,70
2016-06-02T07:31:03.585Z,75
2016-06-02T07:32:03.430Z,75
2016-06-02T07:33:03.590Z,90
2016-06-02T07:34:03.655Z,200
2016-06-02T07:35:03.768Z,115
2016-06-02T07:36:03.613Z,135
2016-06-02T07:37:03.632Z,185
2016-06-02T07:38:03.634Z,210
2016-06-02T07:39:03.496Z,200
2016-06-02T07:40:03.781Z,220
2016-06-02T07:41:04.143Z,215
2016-06-02T07:42:03.676Z,225
2016-06-02T07:43:03.367Z,225
2016-06-02T07:44:03.712Z,210
2016-06-02T07:45:03.700Z,195
2016-06-02T07:46:03.547Z,190
2016-06-02T07:47:03.565Z,190
2016-06-02T07:48:03.553Z,210
2016-06-02T07:49:03.414Z,205
2016-06-02T07:50:03.745Z,190
2016-06-02T07:51:03.747Z,190
2016-06-02T07:52:03.594Z,180
2016-06-02T07:53:03.612Z,155
2016-06-02T07:54:03.787Z,175
2016-06-02T07:55:04.461Z,180
2016-06-02T07:56:03.792Z,160
2016-06-02T07:57:03.794Z,130
2016-06-02T07:58:03.813Z,105
2016-06-02T07:59:03.800Z,110
2016-06-02T08:00:03.819Z,110
2016-06-02T08:01:03.822Z,100
2016-06-02T08:02:03.527Z,105
2016-06-02T08:03:04.045Z,120
2016-06-02T08:04:03.860Z,135
2016-06-02T08:05:03.707Z,160
2016-06-02T08:06:03.865Z,155
2016-06-02T08:07:03.885Z,170
2016-06-02T08:08:03.887Z,150
2016-06-02T08:09:03.873Z,170
2016-06-02T08:10:03.971Z,165
2016-06-02T08:11:03.817Z,150
2016-06-02T08:12:03.959Z,170
2016-06-02T08:13:03.620Z,165
2016-06-02T08:14:03.934Z,155
2016-06-02T08:15:03.983Z,155
2016-06-02T08:16:03.627Z,140
2016-06-02T08:17:03.942Z,135
2016-06-02T08:18:03.961Z,135
2016-06-02T08:19:03.822Z,130
2016-06-02T08:20:03.982Z,125
2016-06-02T08:21:03.844Z,125
2016-06-02T08:22:03.987Z,125
2016-06-02T08:23:03.989Z,130
2016-06-02T08:24:03.852Z,145
2016-06-02T08:25:04.792Z,145
2016-06-02T08:26:04.701Z,150
2016-06-02T08:27:03.875Z,140
2016-06-02T08:28:03.878Z,135
2016-06-02T08:29:04.037Z,115
2016-06-02T08:30:04.055Z,95
2016-06-02T08:31:04.058Z,95
2016-06-02T08:32:04.061Z,100
2016-06-02T08:33:04.063Z,100
2016-06-02T08:34:03.941Z,95
2016-06-02T08:35:04.085Z,100
2016-06-02T08:36:03.947Z,115
2016-06-02T08:37:04.105Z,110
2016-06-02T08:38:03.967Z,115
2016-06-02T08:39:04.110Z,120
2016-06-02T08:40:03.988Z,125
2016-06-02T08:41:03.990Z,120
2016-06-02T08:42:04.150Z,110
2016-06-02T08:43:03.684Z,110
2016-06-02T08:44:03.858Z,100
2016-06-02T08:45:04.158Z,90
2016-06-02T08:46:04.254Z,85
2016-06-02T08:47:04.195Z,85
2016-06-02T08:48:04.166Z,105
2016-06-02T08:49:04.184Z,115
2016-06-02T08:50:04.203Z,120
2016-06-02T08:51:04.049Z,120
2016-06-02T08:52:04.209Z,130
2016-06-02T08:53:04.070Z,135
2016-06-02T08:54:04.073Z,140
2016-06-02T08:55:04.575Z,150
2016-06-02T08:56:04.094Z,170
2016-06-02T08:57:04.237Z,150
2016-06-02T08:58:04.083Z,130
2016-06-02T08:59:04.243Z,125
2016-06-02T09:00:04.105Z,125
2016-06-02T09:01:04.467Z,130
2016-06-02T09:02:04.251Z,135
2016-06-02T09:03:04.269Z,135
2016-06-02T09:04:04.115Z,135
2016-06-02T09:05:04.275Z,130
2016-06-02T09:06:04.277Z,125
2016-06-02T09:07:04.124Z,115
2016-06-02T09:08:04.283Z,115
2016-06-02T09:09:04.285Z,120
2016-06-02T09:10:04.304Z,125
2016-06-02T09:11:04.557Z,125
2016-06-02T09:12:04.356Z,125
2016-06-02T09:13:04.311Z,130
2016-06-02T09:14:04.314Z,120
2016-06-02T09:15:04.365Z,120
2016-06-02T09:16:04.164Z,125
2016-06-02T09:17:04.338Z,135
2016-06-02T09:18:04.169Z,145
2016-06-02T09:19:04.343Z,145
2016-06-02T09:20:04.346Z,145
2016-06-02T09:21:04.364Z,150
2016-06-02T09:22:04.352Z,155
2016-06-02T09:23:04.339Z,155
2016-06-02T09:24:04.201Z,150
2016-06-02T09:25:05.172Z,145
2016-06-02T09:26:04.783Z,140
2016-06-02T09:27:04.365Z,140
2016-06-02T09:28:04.368Z,145
2016-06-02T09:29:04.386Z,140
2016-06-02T09:30:04.389Z,135
2016-06-02T09:31:04.235Z,125
2016-06-02T09:32:04.410Z,120
2016-06-02T09:33:04.413Z,120
2016-06-02T09:34:04.399Z,115
2016-06-02T09:35:04.402Z,110
2016-06-02T09:36:04.421Z,110
2016-06-02T09:37:04.408Z,115
2016-06-02T09:38:04.426Z,115
2016-06-02T09:39:04.288Z,125
2016-06-02T09:40:04.165Z,135
2016-06-02T09:41:05.247Z,140
2016-06-02T09:42:04.280Z,145
2016-06-02T09:43:04.283Z,155
2016-06-02T09:44:04.285Z,170
2016-06-02T09:45:04.288Z,175
2016-06-02T09:46:04.462Z,155
2016-06-02T09:47:04.310Z,140
2016-06-02T09:48:04.312Z,140
2016-06-02T09:49:04.471Z,140
2016-06-02T09:50:04.318Z,135
2016-06-02T09:51:04.476Z,140
2016-06-02T09:52:04.479Z,150
2016-06-02T09:53:04.497Z,155
2016-06-02T09:54:04.485Z,150
2016-06-02T09:55:04.378Z,155
2016-06-02T09:56:04.490Z,150
2016-06-02T09:57:04.508Z,145
2016-06-02T09:58:04.495Z,135
2016-06-02T09:59:04.498Z,130
2016-06-02T10:00:04.517Z,130
2016-06-02T10:01:04.519Z,155
2016-06-02T10:02:04.522Z,125
2016-06-02T10:03:04.525Z,120
2016-06-02T10:04:04.371Z,110
2016-06-02T10:05:04.546Z,110
2016-06-02T10:06:04.533Z,130
2016-06-02T10:07:04.551Z,120
2016-06-02T10:08:04.413Z,125
2016-06-02T10:09:04.399Z,140
2016-06-02T10:10:04.794Z,115
2016-06-02T10:11:04.593Z,100
2016-06-02T10:12:04.595Z,95
2016-06-02T10:13:04.442Z,95
2016-06-02T10:14:04.476Z,100
2016-06-02T10:15:04.573Z,105
2016-06-02T10:16:04.590Z,105
2016-06-02T10:17:04.593Z,110
2016-06-02T10:18:04.611Z,105
2016-06-02T10:19:04.599Z,100
2016-06-02T10:20:04.617Z,100
2016-06-02T10:21:04.620Z,100
2016-06-02T10:22:04.451Z,95
2016-06-02T10:23:04.626Z,95
2016-06-02T10:24:04.503Z,90
2016-06-02T10:25:04.771Z,85
2016-06-02T10:26:05.852Z,90
2016-06-02T10:27:04.668Z,95
2016-06-02T10:28:04.638Z,95
2016-06-02T10:29:04.486Z,95
2016-06-02T10:30:04.331Z,95
2016-06-02T10:31:04.491Z,100
2016-06-02T10:32:04.680Z,105
2016-06-02T10:33:04.652Z,105
2016-06-02T10:34:04.514Z,105
2016-06-02T10:35:04.502Z,105
2016-06-02T10:36:04.722Z,115
2016-06-02T10:37:04.350Z,125
2016-06-02T10:38:04.697Z,125
2016-06-02T10:39:04.683Z,130
2016-06-02T10:40:04.593Z,130
2016-06-02T10:41:05.438Z,130
2016-06-02T10:42:04.707Z,130
2016-06-02T10:43:04.710Z,140
2016-06-02T10:44:04.697Z,155
2016-06-02T10:45:04.699Z,160
2016-06-02T10:46:04.718Z,155
2016-06-02T10:47:05.034Z,150
2016-06-02T10:48:04.083Z,150
2016-06-02T10:49:04.726Z,125
2016-06-02T10:50:04.729Z,125
2016-06-02T10:51:04.560Z,120
2016-06-02T10:52:04.735Z,120
2016-06-02T10:53:04.268Z,120
2016-06-02T10:54:04.724Z,115
2016-06-02T10:55:04.430Z,110
2016-06-02T10:56:05.495Z,110
2016-06-02T10:57:04.606Z,110
2016-06-02T10:58:04.767Z,110
2016-06-02T10:59:04.612Z,110
2016-06-02T11:00:04.615Z,105
2016-06-02T11:01:04.617Z,100
2016-06-02T11:02:04.652Z,95
2016-06-02T11:03:04.780Z,95
2016-06-02T11:04:04.798Z,95
2016-06-02T11:05:04.488Z,90
2016-06-02T11:06:04.788Z,90
2016-06-02T11:07:04.806Z,90
2016-06-02T11:08:04.497Z,90
2016-06-02T11:09:04.639Z,95
2016-06-02T11:10:04.673Z,95
2016-06-02T11:11:05.660Z,100
2016-06-02T11:12:04.819Z,105
2016-06-02T11:13:04.665Z,110
2016-06-02T11:14:04.669Z,115
2016-06-02T11:15:04.890Z,120
2016-06-02T11:16:04.987Z,125
2016-06-02T11:17:04.833Z,125
2016-06-02T11:18:04.836Z,125
2016-06-02T11:19:04.698Z,125
2016-06-02T11:20:05.075Z,125
2016-06-02T11:21:04.859Z,120
2016-06-02T11:22:04.862Z,125
2016-06-02T11:23:04.865Z,135
2016-06-02T11:24:04.867Z,115
2016-06-02T11:25:05.245Z,125
2016-06-02T11:26:05.028Z,120
2016-06-02T11:27:04.906Z,120
2016-06-02T11:28:04.753Z,120
2016-06-02T11:29:04.756Z,120
2016-06-02T11:30:04.571Z,120
2016-06-02T11:31:04.886Z,125
2016-06-02T11:32:04.888Z,120
2016-06-02T11:33:04.736Z,120
2016-06-02T11:34:04.753Z,120
2016-06-02T11:35:04.756Z,125
2016-06-02T11:36:04.916Z,120
2016-06-02T11:37:04.918Z,130
2016-06-02T11:38:04.905Z,135
2016-06-02T11:39:04.939Z,120
2016-06-02T11:40:07.535Z,115
2016-06-02T11:41:05.304Z,110
2016-06-02T11:42:04.947Z,105
2016-06-02T11:43:04.775Z,105
2016-06-02T11:44:04.952Z,115
2016-06-02T11:45:04.940Z,115
2016-06-02T11:46:04.799Z,120
2016-06-02T11:47:04.880Z,125
2016-06-02T11:48:04.804Z,125
2016-06-02T11:49:04.807Z,140
2016-06-02T11:50:04.965Z,140
2016-06-02T11:51:04.812Z,125
2016-06-02T11:52:04.987Z,125
2016-06-02T11:53:04.834Z,125
2016-06-02T11:54:05.008Z,125
2016-06-02T11:55:05.670Z,120
2016-06-02T11:56:05.263Z,115
2016-06-02T11:57:04.845Z,115
2016-06-02T11:58:05.003Z,110
2016-06-02T11:59:05.006Z,110
2016-06-02T12:00:05.008Z,110
2016-06-02T12:01:05.027Z,110
2016-06-02T12:02:05.014Z,115
2016-06-02T12:03:05.032Z,115
2016-06-02T12:04:05.034Z,115
2016-06-02T12:05:05.037Z,120
2016-06-02T12:06:05.039Z,125
2016-06-02T12:07:05.042Z,125
2016-06-02T12:08:05.045Z,130
2016-06-02T12:09:05.064Z,145
2016-06-02T12:10:06.085Z,145
2016-06-02T12:11:05.397Z,135
2016-06-02T12:12:05.071Z,130
2016-06-02T12:13:04.919Z,130
2016-06-02T12:14:04.921Z,125
2016-06-02T12:15:04.768Z,110
2016-06-02T12:16:05.177Z,120
2016-06-02T12:17:04.991Z,105
2016-06-02T12:18:04.947Z,85
2016-06-02T12:19:05.074Z,85
2016-06-02T12:20:04.952Z,80
2016-06-02T12:21:05.096Z,85
2016-06-02T12:22:05.099Z,100
2016-06-02T12:23:05.101Z,110
2016-06-02T12:24:04.963Z,105
2016-06-02T12:25:04.982Z,110
2016-06-02T12:26:05.610Z,105
2016-06-02T12:27:05.128Z,110
2016-06-02T12:28:05.115Z,120
2016-06-02T12:29:05.134Z,115
2016-06-02T12:30:05.136Z,110
2016-06-02T12:31:05.154Z,105
2016-06-02T12:32:05.141Z,95
2016-06-02T12:33:04.988Z,95
2016-06-02T12:34:04.990Z,100
2016-06-02T12:35:05.002Z,105
2016-06-02T12:36:05.033Z,95
2016-06-02T12:37:05.079Z,85
2016-06-02T12:38:05.250Z,90
2016-06-02T12:39:05.140Z,90
2016-06-02T12:40:05.164Z,85
2016-06-02T12:41:05.973Z,75
2016-06-02T12:42:05.345Z,70
2016-06-02T12:43:05.374Z,70
2016-06-02T12:44:05.199Z,80
2016-06-02T12:45:05.366Z,75
2016-06-02T12:46:05.372Z,75
2016-06-02T12:47:05.222Z,70
2016-06-02T12:48:05.384Z,75
2016-06-02T12:49:05.265Z,75
2016-06-02T12:50:05.239Z,75
2016-06-02T12:51:05.447Z,80
2016-06-02T12:52:05.403Z,85
2016-06-02T12:53:05.250Z,85
2016-06-02T12:54:05.145Z,85
2016-06-02T12:55:05.352Z,85
2016-06-02T12:56:05.621Z,85
2016-06-02T12:57:05.452Z,85
2016-06-02T12:58:05.439Z,80
2016-06-02T12:59:05.428Z,80
2016-06-02T13:00:05.430Z,80
2016-06-02T13:01:05.449Z,80
2016-06-02T13:02:05.437Z,90
2016-06-02T13:03:05.439Z,90
2016-06-02T13:04:05.442Z,90
2016-06-02T13:05:05.429Z,90
2016-06-02T13:06:05.448Z,90
2016-06-02T13:07:05.497Z,90
2016-06-02T13:08:05.312Z,90
2016-06-02T13:09:05.471Z,95
2016-06-02T13:10:06.131Z,100
2016-06-02T13:11:05.493Z,95
2016-06-02T13:12:05.464Z,95
2016-06-02T13:13:05.310Z,95
2016-06-02T13:14:05.485Z,95
2016-06-02T13:15:05.473Z,95
2016-06-02T13:16:05.381Z,95
2016-06-02T13:18:05.465Z,100
2016-06-02T13:19:05.326Z,100
2016-06-02T13:20:05.548Z,100
2016-06-02T13:21:05.331Z,105
2016-06-02T13:22:05.491Z,105
2016-06-02T13:23:05.494Z,105
2016-06-02T13:24:05.356Z,100
2016-06-02T13:25:05.358Z,95
2016-06-02T13:26:05.377Z,95
2016-06-02T13:27:05.504Z,95
2016-06-02T13:28:05.522Z,95
2016-06-02T13:29:05.619Z,90
2016-06-02T13:30:05.372Z,90
2016-06-02T13:31:05.374Z,90
2016-06-02T13:32:05.533Z,85
2016-06-02T13:33:05.552Z,90
2016-06-02T13:34:05.539Z,95
2016-06-02T13:35:05.541Z,95
2016-06-02T13:36:05.388Z,100
2016-06-02T13:37:05.579Z,100
2016-06-02T13:38:05.565Z,105
2016-06-02T13:39:05.552Z,105
2016-06-02T13:40:05.914Z,105
2016-06-02T13:41:06.183Z,105
2016-06-02T13:42:05.560Z,105
2016-06-02T13:43:05.579Z,105
2016-06-02T13:44:05.582Z,105
2016-06-02T13:45:05.568Z,100
2016-06-02T13:46:05.414Z,100
2016-06-02T13:47:05.449Z,105
2016-06-02T13:48:05.436Z,105
2016-06-02T13:49:05.611Z,100
2016-06-02T13:50:05.613Z,105
2016-06-02T13:51:05.444Z,105
2016-06-02T13:52:05.665Z,100
2016-06-02T13:53:05.450Z,100
2016-06-02T13:54:05.467Z,100
2016-06-02T13:55:06.033Z,100
2016-06-02T13:56:06.333Z,100
2016-06-02T13:57:05.632Z,100
2016-06-02T13:58:05.650Z,105
2016-06-02T13:59:05.653Z,100
2016-06-02T14:00:05.499Z,100
2016-06-02T14:01:05.658Z,100
2016-06-02T14:02:05.521Z,95
2016-06-02T14:03:05.663Z,95
2016-06-02T14:04:05.682Z,95
2016-06-02T14:05:05.357Z,90
2016-06-02T14:06:05.375Z,90
2016-06-02T14:07:05.690Z,85
2016-06-02T14:08:05.537Z,85
2016-06-02T14:09:05.696Z,90
2016-06-02T14:10:05.588Z,90
2016-06-02T14:11:06.545Z,100
2016-06-02T14:12:05.719Z,100
2016-06-02T14:13:05.565Z,105
2016-06-02T14:14:05.724Z,105
2016-06-02T14:15:05.587Z,105
2016-06-02T14:16:05.730Z,105
2016-06-02T14:17:05.779Z,105
2016-06-02T14:18:05.595Z,105
2016-06-02T14:19:05.738Z,105
2016-06-02T14:20:05.756Z,115
2016-06-02T14:21:05.775Z,115
2016-06-02T14:22:05.762Z,115
2016-06-02T14:23:05.686Z,115
2016-06-02T14:24:05.783Z,120
2016-06-02T14:25:06.019Z,125
2016-06-02T14:26:06.085Z,125
2016-06-02T14:27:05.791Z,120
2016-06-02T14:28:05.793Z,120
2016-06-02T14:29:05.937Z,115